Time;durP1;ratioP1;P1;durP2;ratioP2;P2;SDS_P1;SDS_P2;PMS_P1;PMS_P2;Temp;Humidity;BMP_temperature;BMP_pressure;BME280_temperature;BME280_humidity;BME280_pressure;Samples;Min_cycle;Max_cycle;Signal;HPM_P1;HPM_P2
2023/01/18 00:01:56;;;;;;;63.30;34.80;;;4.20;99.90;;;;;;5035797;28;20625;-92
2023/01/18 00:04:45;;;;;;;57.13;35.30;;;4.20;99.90;;;;;;5044481;28;20240;-94
2023/01/18 00:07:34;;;;;;;55.63;32.80;;;4.10;99.90;;;;;;5030621;28;20232;-90
2023/01/18 00:10:23;;;;;;;58.53;34.77;;;4.20;99.90;;;;;;5036068;28;20221;-93
2023/01/18 00:13:12;;;;;;;58.27;32.60;;;4.30;99.90;;;;;;5013566;28;20242;-93
2023/01/18 00:16:03;;;;;;;53.97;33.53;;;4.30;99.90;;;;;;5012654;28;20241;-92
2023/01/18 00:18:55;;;;;;;60.13;34.63;;;4.40;99.90;;;;;;5037139;28;20276;-93
2023/01/18 00:21:44;;;;;;;53.70;33.07;;;4.40;99.90;;;;;;5027867;28;20324;-93
2023/01/18 00:24:33;;;;;;;57.33;34.73;;;4.20;99.90;;;;;;5032363;28;20232;-91
2023/01/18 00:27:21;;;;;;;59.50;35.03;;;4.40;99.90;;;;;;5034392;28;20322;-92
2023/01/18 00:30:12;;;;;;;60.27;33.93;;;4.40;99.90;;;;;;5053811;28;20222;-90
2023/01/18 00:33:00;;;;;;;55.47;34.00;;;4.40;99.90;;;;;;5040470;28;20256;-92
2023/01/18 00:35:58;;;;;;;59.00;34.50;;;4.40;99.90;;;;;;5054448;28;20225;-91
2023/01/18 00:38:50;;;;;;;58.07;34.30;;;4.40;99.90;;;;;;5041702;28;20244;-88
2023/01/18 00:43:37;;;;;;;58.73;34.63;;;4.60;99.90;;;;;;5031892;28;20277;-90
2023/01/18 00:44:47;;;;;;;57.20;32.97;;;4.40;99.90;;;;;;5032021;28;20221;-91
2023/01/18 00:47:36;;;;;;;56.37;32.97;;;4.20;99.90;;;;;;5043176;28;20233;-92
2023/01/18 00:50:25;;;;;;;56.53;32.63;;;4.30;99.90;;;;;;5030603;28;20693;-93
2023/01/18 00:53:15;;;;;;;58.87;33.60;;;4.20;99.90;;;;;;5036137;28;20305;-93
2023/01/18 00:56:05;;;;;;;55.13;32.77;;;4.00;99.90;;;;;;5024013;28;20301;-94
2023/01/18 00:58:54;;;;;;;55.67;31.20;;;3.80;99.90;;;;;;5024595;28;20221;-92
2023/01/18 01:01:44;;;;;;;57.87;32.67;;;3.90;99.90;;;;;;5026960;28;20912;-89
2023/01/18 01:07:39;;;;;;;54.30;31.50;;;3.90;99.90;;;;;;5032641;28;20226;-89
2023/01/18 01:10:29;;;;;;;59.27;33.23;;;3.60;99.90;;;;;;5031453;28;20233;-90
2023/01/18 01:28:53;;;;;;;50.17;29.23;;;3.80;99.90;;;;;;5013845;28;20352;-92
2023/01/18 01:31:42;;;;;;;49.87;28.47;;;3.80;99.90;;;;;;5037883;28;20255;-89
2023/01/18 01:34:31;;;;;;;49.73;29.50;;;3.70;99.90;;;;;;5040744;28;20221;-91
2023/01/18 01:37:20;;;;;;;46.53;28.37;;;3.70;99.90;;;;;;5025649;28;20234;-87
2023/01/18 01:40:10;;;;;;;47.00;28.73;;;3.70;99.90;;;;;;5035368;28;20225;-89
2023/01/18 01:43:00;;;;;;;47.17;28.00;;;3.80;99.90;;;;;;5031728;28;20320;-89
2023/01/18 01:45:50;;;;;;;51.17;28.63;;;3.90;99.90;;;;;;5029532;28;20229;-86
2023/01/18 01:48:38;;;;;;;47.50;29.30;;;3.90;99.90;;;;;;5045659;28;20225;-87
2023/01/18 01:51:28;;;;;;;51.07;29.57;;;3.90;99.90;;;;;;5049386;28;20240;-90
2023/01/18 01:54:21;;;;;;;50.00;28.80;;;3.80;99.90;;;;;;5027080;28;20250;-89
2023/01/18 01:57:15;;;;;;;49.60;28.33;;;3.90;99.90;;;;;;5037019;28;20240;-90
2023/01/18 02:00:09;;;;;;;53.23;29.07;;;4.00;99.90;;;;;;5026426;28;20234;-89
2023/01/18 02:03:05;;;;;;;51.73;28.73;;;3.80;99.90;;;;;;5037812;28;20244;-87
2023/01/18 02:06:00;;;;;;;46.83;27.77;;;4.00;99.90;;;;;;5045690;28;20229;-88
2023/01/18 02:08:49;;;;;;;46.20;26.77;;;4.00;99.90;;;;;;5026734;28;20225;-85
2023/01/18 02:11:38;;;;;;;45.13;27.43;;;4.10;99.90;;;;;;5044671;28;20398;-89
2023/01/18 02:14:27;;;;;;;45.83;26.77;;;4.10;99.90;;;;;;5032531;28;20241;-89
2023/01/18 02:17:34;;;;;;;44.03;27.00;;;4.00;99.90;;;;;;5031596;28;20233;-89
2023/01/18 02:20:50;;;;;;;45.53;26.63;;;3.80;99.90;;;;;;5038287;28;20221;-89
2023/01/18 02:24:28;;;;;;;46.80;25.87;;;3.70;99.90;;;;;;5047758;28;20209;-88
2023/01/18 02:27:22;;;;;;;49.47;26.87;;;3.80;99.90;;;;;;4976330;28;20228;-90
2023/01/18 02:30:29;;;;;;;47.70;28.17;;;3.90;99.90;;;;;;5010833;28;20302;-91
2023/01/18 02:33:27;;;;;;;47.90;26.47;;;4.10;99.90;;;;;;5053210;28;20213;-91
2023/01/18 02:36:23;;;;;;;45.50;27.57;;;4.10;99.90;;;;;;5036415;28;20241;-90
2023/01/18 02:39:22;;;;;;;45.70;27.00;;;3.90;99.90;;;;;;5039253;28;20232;-91
2023/01/18 02:48:39;;;;;;;49.13;26.73;;;4.00;99.90;;;;;;5053439;28;20201;-91
2023/01/18 02:51:28;;;;;;;44.23;25.73;;;4.20;99.90;;;;;;5067489;28;20253;-93
2023/01/18 02:54:23;;;;;;;42.93;26.23;;;4.10;99.90;;;;;;5036239;28;20233;-93
2023/01/18 02:57:15;;;;;;;43.23;25.93;;;4.10;99.90;;;;;;5017635;28;20230;-92
2023/01/18 03:00:07;;;;;;;41.83;24.70;;;4.10;99.90;;;;;;5028761;28;20257;-93
2023/01/18 03:02:59;;;;;;;45.57;25.73;;;3.80;99.90;;;;;;5031900;28;20240;-93
2023/01/18 03:05:49;;;;;;;39.70;25.23;;;4.00;99.90;;;;;;5028249;28;20221;-90
2023/01/18 03:08:42;;;;;;;38.47;24.70;;;4.10;99.90;;;;;;5028979;28;20221;-93
2023/01/18 03:11:39;;;;;;;42.83;24.70;;;4.00;99.90;;;;;;5044336;28;20266;-89
2023/01/18 03:14:40;;;;;;;42.17;25.27;;;3.80;99.90;;;;;;5032187;28;20253;-87
2023/01/18 03:17:36;;;;;;;42.40;24.93;;;3.90;99.90;;;;;;5052378;28;20291;-88
2023/01/18 03:20:30;;;;;;;41.70;24.67;;;3.90;99.90;;;;;;5055267;28;20209;-90
2023/01/18 03:23:41;;;;;;;38.40;24.17;;;3.90;99.90;;;;;;5030923;28;20221;-88
2023/01/18 03:26:31;;;;;;;40.03;23.73;;;4.00;99.90;;;;;;5039196;28;20570;-88
2023/01/18 03:35:37;;;;;;;38.13;23.17;;;4.10;99.90;;;;;;5029152;28;20217;-91
2023/01/18 03:38:28;;;;;;;38.00;22.43;;;4.10;99.90;;;;;;5032035;28;20604;-92
2023/01/18 03:41:18;;;;;;;35.40;20.73;;;4.10;99.90;;;;;;5040179;28;20298;-94
2023/01/18 03:44:10;;;;;;;36.40;21.10;;;4.10;99.90;;;;;;5015883;28;20261;-90
2023/01/18 03:47:04;;;;;;;34.27;20.27;;;4.20;99.90;;;;;;5027883;28;20297;-88
2023/01/18 03:49:53;;;;;;;36.60;20.20;;;4.20;99.90;;;;;;5027943;28;20231;-89
2023/01/18 03:52:46;;;;;;;34.83;20.10;;;4.10;99.90;;;;;;5028138;28;20259;-89
2023/01/18 03:55:41;;;;;;;33.53;20.30;;;4.20;99.90;;;;;;5039584;28;20233;-88
2023/01/18 03:58:35;;;;;;;34.73;19.70;;;4.30;99.90;;;;;;5017942;28;20229;-88
2023/01/18 04:01:24;;;;;;;33.90;19.47;;;4.40;99.90;;;;;;5039043;28;20221;-89
2023/01/18 04:04:13;;;;;;;32.47;19.37;;;4.30;99.90;;;;;;5043116;28;20233;-88
2023/01/18 04:07:02;;;;;;;30.90;18.30;;;4.30;99.90;;;;;;5037007;28;20720;-89
2023/01/18 04:09:53;;;;;;;35.90;19.47;;;4.20;99.90;;;;;;5040642;28;20402;-90
2023/01/18 04:12:41;;;;;;;34.97;19.27;;;4.20;99.90;;;;;;5036183;28;20233;-90
2023/01/18 04:15:30;;;;;;;36.00;19.27;;;4.40;99.90;;;;;;5029838;28;20226;-90
2023/01/18 04:18:19;;;;;;;33.20;19.10;;;4.30;99.90;;;;;;5028715;28;20319;-89
2023/01/18 04:21:08;;;;;;;31.70;18.63;;;4.30;99.90;;;;;;5014452;28;20594;-89
2023/01/18 04:23:56;;;;;;;32.33;18.23;;;4.30;99.90;;;;;;5037402;28;20232;-89
2023/01/18 04:26:47;;;;;;;34.83;18.63;;;4.20;99.90;;;;;;5029087;28;20668;-89
2023/01/18 04:29:35;;;;;;;32.93;18.93;;;4.30;99.90;;;;;;5037718;28;20206;-90
2023/01/18 04:32:24;;;;;;;35.37;19.10;;;4.20;99.90;;;;;;5063317;28;20281;-94
2023/01/18 04:35:13;;;;;;;39.93;20.13;;;4.20;99.90;;;;;;5059078;28;20230;-93
2023/01/18 04:38:02;;;;;;;33.50;18.53;;;4.10;99.90;;;;;;5041040;28;20245;-94
2023/01/18 04:40:51;;;;;;;33.07;18.37;;;4.10;99.90;;;;;;5031932;28;20229;-91
2023/01/18 04:43:41;;;;;;;34.47;18.83;;;4.20;99.90;;;;;;5033042;28;20359;-91
2023/01/18 04:46:30;;;;;;;37.10;19.83;;;4.20;99.90;;;;;;5024988;28;20222;-91
2023/01/18 04:49:20;;;;;;;33.83;18.60;;;4.40;99.90;;;;;;5030943;28;20226;-90
2023/01/18 04:52:08;;;;;;;35.37;19.43;;;4.30;99.90;;;;;;5038499;28;20221;-92
2023/01/18 04:54:57;;;;;;;37.37;20.47;;;4.40;99.90;;;;;;5046918;28;20230;-93
2023/01/18 04:57:46;;;;;;;38.43;20.37;;;4.40;99.90;;;;;;5049920;28;20256;-91
2023/01/18 05:00:38;;;;;;;36.10;19.73;;;4.30;99.90;;;;;;5061960;28;20207;-91
2023/01/18 05:03:27;;;;;;;38.37;20.03;;;4.40;99.90;;;;;;5043091;28;20221;-91
2023/01/18 05:06:19;;;;;;;39.50;20.23;;;4.40;99.90;;;;;;5046965;28;20232;-91
2023/01/18 05:09:10;;;;;;;41.10;21.37;;;4.40;99.90;;;;;;5060186;28;20225;-91
2023/01/18 05:11:59;;;;;;;40.63;21.40;;;4.40;99.90;;;;;;5059370;28;20677;-93
2023/01/18 05:14:47;;;;;;;40.83;20.53;;;4.40;99.90;;;;;;5022135;28;20221;-92
2023/01/18 05:17:37;;;;;;;43.00;22.17;;;4.30;99.90;;;;;;5032850;28;20741;-90
2023/01/18 05:20:26;;;;;;;41.70;21.50;;;4.40;99.90;;;;;;5046679;28;20217;-91
2023/01/18 05:23:15;;;;;;;41.23;20.93;;;4.30;99.90;;;;;;5036740;28;20316;-92
2023/01/18 05:26:12;;;;;;;42.70;21.50;;;4.40;99.90;;;;;;5013024;28;20308;-92
2023/01/18 05:29:01;;;;;;;40.97;21.50;;;4.20;99.90;;;;;;5028385;28;20226;-90
2023/01/18 05:31:49;;;;;;;45.77;22.63;;;4.20;99.90;;;;;;5026017;28;20216;-90
2023/01/18 05:34:40;;;;;;;38.70;20.33;;;4.30;99.90;;;;;;5043194;28;20218;-89
2023/01/18 05:37:28;;;;;;;41.93;20.87;;;4.20;99.90;;;;;;5031488;28;20230;-89
2023/01/18 05:40:17;;;;;;;42.40;20.23;;;4.30;99.90;;;;;;5034926;28;20225;-89
2023/01/18 05:43:06;;;;;;;41.83;21.03;;;4.20;99.90;;;;;;5037981;28;20226;-90
2023/01/18 05:45:55;;;;;;;41.73;20.77;;;4.00;99.90;;;;;;5028280;28;20233;-90
2023/01/18 05:48:48;;;;;;;39.07;20.00;;;4.10;99.90;;;;;;5038912;28;20311;-88
2023/01/18 05:51:39;;;;;;;39.20;19.53;;;4.00;99.90;;;;;;5051298;28;20315;-89
2023/01/18 05:54:27;;;;;;;41.33;19.73;;;4.00;99.90;;;;;;5044729;28;20253;-88
2023/01/18 05:57:16;;;;;;;40.63;19.40;;;4.00;99.90;;;;;;5049007;28;20225;-88
2023/01/18 06:00:08;;;;;;;42.37;19.17;;;3.80;99.90;;;;;;5037189;28;20239;-88
2023/01/18 06:03:00;;;;;;;35.80;18.37;;;3.90;99.90;;;;;;5050329;28;20226;-86
2023/01/18 06:05:50;;;;;;;34.53;17.27;;;3.90;99.90;;;;;;5034572;28;20312;-88
2023/01/18 06:08:40;;;;;;;36.73;18.57;;;3.70;99.90;;;;;;5046484;28;20364;-88
2023/01/18 06:11:29;;;;;;;32.77;17.30;;;3.70;99.90;;;;;;5056737;28;20242;-89
2023/01/18 06:14:18;;;;;;;32.30;17.53;;;3.60;99.90;;;;;;5039133;28;20341;-89
2023/01/18 06:17:07;;;;;;;30.47;15.20;;;3.70;99.90;;;;;;5031504;28;20225;-86
2023/01/18 06:19:56;;;;;;;29.50;14.53;;;3.60;99.90;;;;;;5033915;28;20281;-88
2023/01/18 06:22:46;;;;;;;31.60;15.67;;;3.60;99.90;;;;;;5042140;28;20230;-90
2023/01/18 06:25:37;;;;;;;32.17;15.53;;;3.60;99.90;;;;;;5064188;28;20205;-86
2023/01/18 06:28:26;;;;;;;29.17;14.77;;;3.70;99.90;;;;;;5063709;28;20226;-88
2023/01/18 06:31:18;;;;;;;29.67;15.10;;;3.70;99.90;;;;;;5023978;28;20238;-86
2023/01/18 06:34:09;;;;;;;30.30;14.47;;;3.80;99.90;;;;;;5039183;28;20225;-88
2023/01/18 06:36:57;;;;;;;28.63;14.30;;;3.90;99.90;;;;;;5011910;28;20234;-81
2023/01/18 06:39:47;;;;;;;25.23;13.30;;;3.80;99.90;;;;;;5039582;28;20289;-89
2023/01/18 06:42:37;;;;;;;28.60;14.30;;;3.80;99.90;;;;;;5037429;28;20273;-87
2023/01/18 06:45:28;;;;;;;23.30;13.07;;;3.70;99.90;;;;;;5040077;28;20220;-87
2023/01/18 06:48:16;;;;;;;27.50;13.47;;;3.80;99.90;;;;;;5016506;28;20218;-86
2023/01/18 06:51:05;;;;;;;24.63;12.70;;;3.70;99.90;;;;;;5031002;28;20282;-84
2023/01/18 06:53:54;;;;;;;24.63;12.57;;;3.60;99.90;;;;;;5061038;28;20244;-87
2023/01/18 06:56:44;;;;;;;23.73;12.93;;;3.80;99.90;;;;;;5034541;28;20334;-84
2023/01/18 06:59:34;;;;;;;24.43;12.13;;;3.80;99.90;;;;;;5034710;28;20227;-88
2023/01/18 07:02:24;;;;;;;22.23;11.77;;;3.80;99.90;;;;;;5036256;28;20233;-85
2023/01/18 07:05:13;;;;;;;22.17;12.33;;;3.70;99.90;;;;;;5027042;28;20226;-82
2023/01/18 07:08:02;;;;;;;23.93;11.80;;;3.60;99.90;;;;;;5041230;28;20218;-83
2023/01/18 07:10:51;;;;;;;25.57;12.67;;;3.80;99.90;;;;;;5020054;28;20213;-81
2023/01/18 07:13:42;;;;;;;21.07;11.43;;;3.80;99.90;;;;;;5031022;28;20253;-83
2023/01/18 07:16:33;;;;;;;20.83;11.40;;;3.80;99.90;;;;;;5022902;28;20221;-83
2023/01/18 07:19:21;;;;;;;19.83;11.10;;;3.90;99.90;;;;;;5008427;28;20239;-84
2023/01/18 07:22:10;;;;;;;18.87;10.77;;;3.80;99.90;;;;;;5025492;28;20752;-84
2023/01/18 07:24:59;;;;;;;19.50;11.00;;;3.80;99.90;;;;;;5029348;28;21124;-84
2023/01/18 07:27:48;;;;;;;19.60;10.70;;;3.80;99.90;;;;;;5032973;28;20218;-83
2023/01/18 07:30:37;;;;;;;17.77;10.57;;;3.90;99.90;;;;;;5016070;28;20276;-84
2023/01/18 07:33:28;;;;;;;18.07;10.27;;;3.80;99.90;;;;;;5024387;28;20237;-83
2023/01/18 07:36:17;;;;;;;16.80;9.93;;;3.80;99.90;;;;;;5019037;28;20219;-83
2023/01/18 07:39:07;;;;;;;17.13;9.60;;;3.80;99.90;;;;;;5024094;28;20225;-83
2023/01/18 07:41:56;;;;;;;16.73;8.93;;;3.80;99.90;;;;;;5023407;28;20784;-83
2023/01/18 07:44:45;;;;;;;15.70;9.40;;;3.80;99.90;;;;;;5029212;28;20232;-82
2023/01/18 07:47:35;;;;;;;16.73;9.43;;;3.80;99.90;;;;;;5022392;28;20332;-87
2023/01/18 07:50:25;;;;;;;14.57;9.10;;;3.90;99.90;;;;;;5034601;28;20221;-87
2023/01/18 07:53:14;;;;;;;14.33;8.00;;;3.70;99.90;;;;;;5038684;28;20756;-87
2023/01/18 07:56:05;;;;;;;14.73;7.57;;;3.60;99.90;;;;;;5008125;28;20229;-86
2023/01/18 07:58:54;;;;;;;13.60;7.50;;;3.60;99.90;;;;;;5038045;28;20356;-85
2023/01/18 08:01:43;;;;;;;12.10;7.57;;;3.80;99.90;;;;;;5022042;28;20217;-85
2023/01/18 08:04:32;;;;;;;11.63;7.33;;;3.70;99.90;;;;;;5017226;28;20239;-83
2023/01/18 08:07:22;;;;;;;12.37;7.57;;;3.90;99.90;;;;;;5024513;28;20222;-87
2023/01/18 08:10:13;;;;;;;11.97;6.80;;;3.70;99.90;;;;;;5028333;28;20854;-87
2023/01/18 08:13:02;;;;;;;14.10;7.43;;;3.70;99.90;;;;;;5038669;28;20260;-87
2023/01/18 08:15:52;;;;;;;13.27;7.00;;;3.70;99.90;;;;;;5025227;28;20316;-87
2023/01/18 08:18:41;;;;;;;11.73;6.87;;;3.80;99.90;;;;;;5027048;28;20226;-83
2023/01/18 08:21:34;;;;;;;11.20;7.10;;;3.80;99.90;;;;;;5040616;28;20228;-82
2023/01/18 08:24:24;;;;;;;12.00;6.07;;;3.60;99.90;;;;;;5023125;28;20278;-82
2023/01/18 08:27:13;;;;;;;11.93;6.53;;;3.80;99.90;;;;;;5035041;28;20219;-84
2023/01/18 08:30:02;;;;;;;10.73;6.20;;;3.70;99.90;;;;;;5027971;28;20225;-83
2023/01/18 08:32:51;;;;;;;12.90;6.23;;;3.90;99.90;;;;;;5014492;28;20316;-83
2023/01/18 08:35:42;;;;;;;11.90;7.03;;;3.80;99.90;;;;;;5020750;28;20228;-84
2023/01/18 08:38:32;;;;;;;9.53;5.83;;;3.90;99.90;;;;;;5024945;28;20601;-82
2023/01/18 08:41:27;;;;;;;9.67;6.07;;;3.80;99.90;;;;;;5038585;28;20224;-80
2023/01/18 08:44:16;;;;;;;10.67;5.77;;;3.70;99.90;;;;;;5024210;28;20367;-83
2023/01/18 08:47:05;;;;;;;13.43;6.10;;;3.80;99.90;;;;;;5022976;28;20234;-82
2023/01/18 08:49:54;;;;;;;8.63;5.57;;;3.90;99.90;;;;;;5019377;28;20236;-83
2023/01/18 08:52:43;;;;;;;10.73;5.60;;;3.90;99.90;;;;;;5025687;28;20270;-83
2023/01/18 08:55:33;;;;;;;10.00;5.67;;;3.80;99.90;;;;;;5033350;28;20712;-82
2023/01/18 08:58:24;;;;;;;8.57;5.87;;;3.80;99.90;;;;;;5003407;28;20222;-82
2023/01/18 09:01:13;;;;;;;8.80;5.60;;;3.90;99.90;;;;;;4994475;28;20230;-82
2023/01/18 09:04:02;;;;;;;8.70;5.87;;;4.10;99.90;;;;;;5012780;28;20273;-83
2023/01/18 09:06:51;;;;;;;9.60;5.57;;;4.20;99.90;;;;;;5009166;28;20230;-87
2023/01/18 09:09:40;;;;;;;8.93;5.57;;;4.20;99.90;;;;;;5015823;28;20221;-89
2023/01/18 09:12:29;;;;;;;8.37;5.00;;;4.10;99.90;;;;;;5009526;28;20329;-89
2023/01/18 09:15:20;;;;;;;7.57;5.53;;;4.10;99.90;;;;;;5018912;28;20217;-88
2023/01/18 09:18:09;;;;;;;8.77;4.90;;;4.20;99.90;;;;;;5012253;28;20225;-91
2023/01/18 09:20:59;;;;;;;6.83;5.00;;;4.10;99.90;;;;;;5032762;28;20306;-88
2023/01/18 09:23:49;;;;;;;8.20;4.60;;;4.10;99.90;;;;;;5018868;28;20233;-87
2023/01/18 09:26:39;;;;;;;6.87;4.50;;;4.10;99.90;;;;;;5021703;28;20349;-89
2023/01/18 09:29:30;;;;;;;6.33;4.17;;;4.10;99.90;;;;;;5009341;28;20264;-90
2023/01/18 09:32:20;;;;;;;7.13;4.37;;;4.10;99.90;;;;;;5035220;28;20355;-88
2023/01/18 09:35:10;;;;;;;6.43;4.43;;;4.00;99.90;;;;;;5008714;28;20215;-89
2023/01/18 09:37:59;;;;;;;6.43;4.43;;;3.90;99.90;;;;;;5005807;28;20226;-82
2023/01/18 09:40:48;;;;;;;6.60;4.27;;;3.90;99.90;;;;;;4988705;28;20222;-81
2023/01/18 09:43:42;;;;;;;6.30;3.93;;;3.90;99.90;;;;;;5005533;28;20275;-82
2023/01/18 09:46:35;;;;;;;6.10;4.20;;;3.80;99.90;;;;;;5006142;28;20348;-85
2023/01/18 09:49:32;;;;;;;5.80;4.10;;;4.00;99.90;;;;;;5028087;28;20249;-82
2023/01/18 09:52:30;;;;;;;5.43;3.70;;;4.00;99.90;;;;;;4998735;28;20230;-81
2023/01/18 09:55:26;;;;;;;6.77;3.70;;;4.00;99.90;;;;;;5025195;28;20292;-82
2023/01/18 09:58:36;;;;;;;7.00;3.87;;;4.00;99.90;;;;;;5004136;28;20261;-78
2023/01/18 10:01:28;;;;;;;4.77;3.43;;;4.00;99.90;;;;;;5006418;28;20246;-88
2023/01/18 10:04:21;;;;;;;6.20;3.70;;;4.00;99.90;;;;;;5005171;28;20269;-85
2023/01/18 10:07:15;;;;;;;6.67;4.30;;;3.90;99.90;;;;;;5011484;28;20241;-81
2023/01/18 10:12:00;;;;;;;7.67;4.07;;;4.00;99.90;;;;;;5063576;28;20525;-79
2023/01/18 10:14:53;;;;;;;5.33;3.50;;;4.00;99.90;;;;;;5059929;28;20281;-79
2023/01/18 10:17:43;;;;;;;5.57;4.10;;;4.00;99.90;;;;;;5056359;28;20222;-77
2023/01/18 10:20:39;;;;;;;5.57;3.87;;;3.90;99.90;;;;;;5058193;28;20243;-78
2023/01/18 10:23:32;;;;;;;5.13;3.63;;;4.00;99.90;;;;;;5049813;28;20744;-78
2023/01/18 10:26:28;;;;;;;6.50;4.20;;;4.10;99.90;;;;;;5047794;28;20227;-78
2023/01/18 10:29:31;;;;;;;6.00;3.90;;;4.10;99.90;;;;;;5054026;28;20247;-78
2023/01/18 10:32:26;;;;;;;4.73;4.00;;;4.00;99.90;;;;;;5066721;28;20603;-77
2023/01/18 10:35:18;;;;;;;5.80;4.17;;;4.10;99.90;;;;;;5050329;28;20447;-78
2023/01/18 10:38:12;;;;;;;5.20;3.80;;;4.00;99.90;;;;;;5065323;28;20232;-78
2023/01/18 10:41:02;;;;;;;8.30;4.43;;;3.90;99.90;;;;;;5052302;28;20315;-79
2023/01/18 10:43:51;;;;;;;5.33;4.33;;;4.10;99.90;;;;;;5050889;28;20232;-79
2023/01/18 10:46:41;;;;;;;5.17;4.17;;;4.10;99.90;;;;;;5053014;28;20216;-80
2023/01/18 10:49:35;;;;;;;7.13;4.40;;;3.90;99.90;;;;;;5056020;28;20216;-79
2023/01/18 10:52:27;;;;;;;5.33;4.33;;;3.90;99.90;;;;;;5066426;28;20223;-80
2023/01/18 10:55:18;;;;;;;6.53;3.77;;;4.00;99.90;;;;;;5058526;28;20238;-78
2023/01/18 10:58:14;;;;;;;5.60;4.73;;;4.00;99.90;;;;;;5048353;28;20216;-78
2023/01/18 11:01:03;;;;;;;7.37;4.50;;;4.10;99.90;;;;;;5051035;28;20272;-81
2023/01/18 11:03:57;;;;;;;5.37;4.20;;;4.10;99.90;;;;;;5044628;28;20225;-79
2023/01/18 11:06:46;;;;;;;6.00;4.63;;;4.10;99.90;;;;;;5052235;28;20370;-78
2023/01/18 11:09:54;;;;;;;5.27;4.67;;;4.20;99.90;;;;;;5048621;28;20221;-79
2023/01/18 11:12:46;;;;;;;6.70;5.00;;;4.20;99.90;;;;;;5006907;28;20893;-80
2023/01/18 11:15:35;;;;;;;5.77;5.00;;;4.20;99.90;;;;;;5028681;28;20259;-79
2023/01/18 11:18:24;;;;;;;6.83;5.00;;;4.00;99.90;;;;;;5014128;28;20308;-78
2023/01/18 11:21:15;;;;;;;7.90;5.13;;;4.20;99.90;;;;;;5031550;28;20243;-79
2023/01/18 11:24:08;;;;;;;6.17;4.87;;;4.10;99.90;;;;;;5023139;28;20225;-79
2023/01/18 11:27:00;;;;;;;5.97;5.10;;;4.10;99.90;;;;;;5038165;28;20218;-79
2023/01/18 11:29:49;;;;;;;7.03;5.17;;;4.10;99.90;;;;;;5022266;28;20245;-79
2023/01/18 11:32:40;;;;;;;9.47;4.50;;;4.30;99.90;;;;;;5015408;28;20226;-79
2023/01/18 11:35:33;;;;;;;8.20;5.10;;;4.30;99.90;;;;;;5013058;28;20727;-79
2023/01/18 11:38:28;;;;;;;6.80;5.20;;;4.20;99.90;;;;;;5013329;28;20279;-78
2023/01/18 11:41:19;;;;;;;7.60;5.20;;;4.20;99.90;;;;;;5003058;28;20218;-77
2023/01/18 11:44:17;;;;;;;7.13;5.00;;;4.30;99.90;;;;;;4994207;28;21128;-81
2023/01/18 11:47:14;;;;;;;7.67;5.57;;;4.30;99.90;;;;;;5016941;28;20234;-78
2023/01/18 11:50:12;;;;;;;6.67;5.03;;;4.40;99.90;;;;;;5000597;28;20534;-78
2023/01/18 11:53:26;;;;;;;6.30;4.77;;;4.40;99.90;;;;;;5000653;28;20329;-77
2023/01/18 11:56:23;;;;;;;6.70;4.70;;;4.30;99.90;;;;;;5003743;28;20585;-78
2023/01/18 11:59:15;;;;;;;5.63;5.07;;;4.20;99.90;;;;;;5001520;28;20732;-78
2023/01/18 12:02:38;;;;;;;7.93;4.70;;;4.40;99.90;;;;;;5027096;28;20703;-78
2023/01/18 12:05:35;;;;;;;5.97;4.90;;;4.20;99.90;;;;;;5004861;28;20225;-79
2023/01/18 12:08:40;;;;;;;7.27;4.37;;;4.30;99.90;;;;;;5015154;28;20681;-78
2023/01/18 12:11:47;;;;;;;5.10;4.13;;;4.40;99.90;;;;;;5036532;28;21076;-79
2023/01/18 12:14:53;;;;;;;7.70;5.03;;;4.20;99.90;;;;;;5039730;28;20216;-78
2023/01/18 12:18:00;;;;;;;5.80;4.57;;;4.50;99.90;;;;;;5039580;28;20217;-79
2023/01/18 12:21:08;;;;;;;4.77;4.00;;;4.20;99.90;;;;;;5033546;28;20237;-79
2023/01/18 12:24:27;;;;;;;5.10;3.73;;;4.10;99.90;;;;;;5035138;28;20623;-77
2023/01/18 12:27:28;;;;;;;4.60;3.80;;;4.10;99.90;;;;;;5024120;28;20266;-78
2023/01/18 12:30:31;;;;;;;4.97;3.30;;;4.00;99.90;;;;;;5054399;28;20234;-79
2023/01/18 12:33:34;;;;;;;3.97;3.57;;;4.10;99.90;;;;;;5064985;28;20227;-77
2023/01/18 12:36:53;;;;;;;4.80;3.70;;;4.10;99.90;;;;;;5051916;28;20224;-76
2023/01/18 12:39:55;;;;;;;5.67;3.50;;;4.20;99.90;;;;;;5040415;28;20327;-79
2023/01/18 12:42:53;;;;;;;4.57;3.70;;;4.30;99.90;;;;;;5039929;28;20616;-84
2023/01/18 12:45:45;;;;;;;7.80;4.53;;;4.40;99.90;;;;;;5045544;28;20217;-80
2023/01/18 12:48:42;;;;;;;5.53;4.00;;;4.70;99.90;;;;;;5059752;28;20779;-83
2023/01/18 12:51:36;;;;;;;5.27;4.07;;;4.40;99.90;;;;;;5063700;28;20770;-79
2023/01/18 12:54:30;;;;;;;6.03;4.90;;;4.60;99.90;;;;;;5056863;28;20684;-78
2023/01/18 12:57:22;;;;;;;6.90;5.70;;;4.70;99.90;;;;;;5046804;28;20239;-82
2023/01/18 13:00:18;;;;;;;5.53;4.80;;;4.70;99.90;;;;;;5058081;28;20970;-78
2023/01/18 13:03:12;;;;;;;6.33;4.17;;;4.90;99.90;;;;;;5071690;28;20217;-80
2023/01/18 13:06:02;;;;;;;6.30;5.07;;;4.80;99.90;;;;;;5046827;28;20231;-81
2023/01/18 13:08:55;;;;;;;8.23;6.00;;;4.70;99.90;;;;;;5057022;28;20224;-79
2023/01/18 13:11:44;;;;;;;8.23;5.10;;;4.80;99.90;;;;;;5049446;28;20224;-79
2023/01/18 13:14:42;;;;;;;7.20;5.90;;;4.90;99.90;;;;;;5064982;28;20219;-80
2023/01/18 13:17:37;;;;;;;6.47;5.87;;;4.90;99.90;;;;;;5070332;28;20220;-79
2023/01/18 13:20:37;;;;;;;9.57;7.17;;;5.00;99.90;;;;;;5059031;28;20235;-81
2023/01/18 13:23:35;;;;;;;7.10;6.37;;;4.90;99.90;;;;;;5039659;28;20223;-81
2023/01/18 13:26:28;;;;;;;7.13;6.13;;;5.00;99.90;;;;;;5050622;28;20232;-77
2023/01/18 13:29:24;;;;;;;8.00;6.27;;;5.00;99.90;;;;;;5057804;28;20216;-79
2023/01/18 13:32:30;;;;;;;8.40;5.80;;;5.10;99.90;;;;;;5054428;28;20224;-79
2023/01/18 13:35:22;;;;;;;6.70;6.00;;;5.10;99.90;;;;;;5057751;28;20227;-79
2023/01/18 13:38:18;;;;;;;9.97;7.13;;;5.10;99.90;;;;;;5041403;28;20365;-78
2023/01/18 13:41:10;;;;;;;9.30;6.47;;;5.20;99.90;;;;;;5022002;28;20324;-79
2023/01/18 13:44:02;;;;;;;5.97;5.33;;;5.20;99.90;;;;;;5032241;28;20229;-78
2023/01/18 13:46:51;;;;;;;6.20;5.60;;;5.20;99.90;;;;;;5038066;28;20233;-80
2023/01/18 13:49:46;;;;;;;9.33;5.33;;;5.20;99.90;;;;;;5032172;28;20220;-79
2023/01/18 13:52:41;;;;;;;9.63;6.43;;;5.10;99.90;;;;;;5034586;28;20639;-82
2023/01/18 13:55:30;;;;;;;11.27;7.90;;;5.10;99.90;;;;;;5042745;28;20268;-79
2023/01/18 13:58:24;;;;;;;12.30;9.27;;;5.00;99.90;;;;;;5058654;28;20228;-79
2023/01/18 14:01:21;;;;;;;9.13;7.43;;;5.00;99.90;;;;;;5061830;28;20231;-78
2023/01/18 14:04:30;;;;;;;11.23;8.03;;;5.00;99.90;;;;;;5058542;28;20761;-82
2023/01/18 14:07:22;;;;;;;10.87;7.77;;;5.00;99.90;;;;;;5058204;28;20308;-80
2023/01/18 14:10:32;;;;;;;12.13;8.70;;;4.90;99.90;;;;;;5060584;28;20228;-79
2023/01/18 14:14:03;;;;;;;9.47;7.63;;;5.00;99.90;;;;;;5058362;28;20239;-79
2023/01/18 14:17:05;;;;;;;9.97;7.83;;;5.00;99.90;;;;;;5053694;28;20598;-79
2023/01/18 14:20:05;;;;;;;10.00;7.17;;;4.90;99.90;;;;;;5054643;28;20250;-78
2023/01/18 14:23:06;;;;;;;11.10;8.30;;;4.80;99.90;;;;;;5059029;28;20220;-79
2023/01/18 14:25:59;;;;;;;8.73;6.77;;;4.80;99.90;;;;;;5060110;28;20227;-79
2023/01/18 14:28:51;;;;;;;9.50;7.43;;;4.80;99.90;;;;;;5055007;28;20216;-79
2023/01/18 14:31:45;;;;;;;11.13;7.57;;;4.70;99.90;;;;;;5058239;28;20212;-78
2023/01/18 14:34:37;;;;;;;11.83;8.27;;;4.70;99.90;;;;;;5054325;28;20320;-78
2023/01/18 14:37:28;;;;;;;12.53;8.70;;;4.60;99.90;;;;;;5039440;28;20227;-77
2023/01/18 14:40:22;;;;;;;15.80;11.73;;;4.50;99.90;;;;;;5054421;28;20277;-78
2023/01/18 14:43:15;;;;;;;16.00;11.60;;;4.60;99.90;;;;;;5052854;28;20265;-81
2023/01/18 14:46:07;;;;;;;16.47;11.63;;;4.70;99.90;;;;;;5057355;28;20344;-80
2023/01/18 14:48:58;;;;;;;16.37;11.30;;;4.80;99.90;;;;;;5054867;28;20228;-80
2023/01/18 14:51:49;;;;;;;16.30;11.90;;;4.90;99.90;;;;;;5058122;28;20217;-79
2023/01/18 14:54:38;;;;;;;15.70;10.47;;;4.90;99.90;;;;;;5057172;28;20474;-83
2023/01/18 14:57:28;;;;;;;11.20;9.30;;;4.80;99.90;;;;;;5043618;28;20243;-82
2023/01/18 15:00:18;;;;;;;12.10;9.07;;;4.60;99.90;;;;;;5054873;28;20276;-82
2023/01/18 15:03:13;;;;;;;12.20;8.93;;;4.60;99.90;;;;;;5055779;28;20632;-84
2023/01/18 15:06:09;;;;;;;11.70;8.90;;;4.50;99.90;;;;;;5060348;28;20243;-83
2023/01/18 15:08:58;;;;;;;12.13;10.00;;;4.50;99.90;;;;;;5045240;28;20228;-83
2023/01/18 15:11:47;;;;;;;15.20;10.70;;;4.60;99.90;;;;;;5045605;28;20224;-84
2023/01/18 15:14:43;;;;;;;15.63;11.87;;;4.50;99.90;;;;;;5061957;28;20220;-83
2023/01/18 15:17:32;;;;;;;15.30;10.93;;;4.60;99.90;;;;;;5059398;28;20224;-84
2023/01/18 15:20:21;;;;;;;16.20;10.90;;;4.50;99.90;;;;;;5060260;28;20322;-82
2023/01/18 15:23:11;;;;;;;14.47;10.00;;;4.50;99.90;;;;;;5053225;28;20246;-83
2023/01/18 15:26:01;;;;;;;14.80;11.27;;;4.60;99.90;;;;;;5043487;28;20299;-82
2023/01/18 15:28:49;;;;;;;13.73;10.50;;;4.50;99.90;;;;;;5037699;28;20831;-82
2023/01/18 15:31:47;;;;;;;16.07;11.50;;;4.50;99.90;;;;;;5041093;28;20224;-83